createdAt,value
2023-03-08T22:10:59.385Z,158.93
2023-03-08T22:12:06.160Z,160.45
2023-03-08T22:13:16.010Z,156.82
2023-03-08T22:14:21.409Z,166.75
2023-03-08T22:15:29.581Z,167.27
2023-03-08T22:16:35.058Z,154.35
2023-03-08T22:17:41.993Z,158.52
2023-03-08T22:18:48.054Z,163.00
2023-03-08T22:19:55.450Z,160.53
2023-03-08T22:21:01.184Z,170.95
2023-03-08T22:22:07.905Z,155.88
2023-03-08T22:23:14.630Z,171.93
2023-03-08T22:24:21.970Z,185.02
2023-03-08T22:25:28.671Z,177.68
2023-03-08T22:26:35.909Z,157.10
2023-03-08T22:27:42.885Z,170.77
2023-03-08T22:28:48.386Z,174.10
2023-03-08T22:29:55.113Z,178.52
2023-03-08T22:31:01.787Z,171.80
2023-03-08T22:32:09.141Z,157.82
2023-03-08T22:33:15.907Z,155.75
2023-03-08T22:34:21.303Z,181.73
2023-03-08T22:35:28.105Z,187.57
2023-03-08T22:36:33.477Z,206.02
2023-03-08T22:37:40.281Z,187.98
2023-03-08T22:38:45.657Z,169.65
2023-03-08T22:39:52.826Z,179.05
2023-03-08T22:41:00.067Z,167.77
2023-03-08T22:42:08.559Z,155.30
2023-03-08T22:43:14.981Z,149.68
2023-03-08T22:44:21.735Z,144.55
2023-03-08T22:45:27.176Z,159.32
2023-03-08T22:46:34.364Z,166.00
2023-03-08T22:47:39.856Z,151.93
2023-03-08T22:48:47.313Z,143.45
2023-03-08T22:49:54.692Z,142.05
2023-03-08T22:51:10.317Z,158.07
2023-03-08T22:52:18.252Z,143.13
2023-03-08T22:53:24.281Z,140.83
2023-03-08T22:54:31.668Z,164.80
2023-03-08T22:55:38.437Z,156.27
2023-03-08T22:56:49.887Z,145.93
2023-03-08T22:57:57.245Z,148.90
2023-03-08T22:59:04.600Z,155.20
2023-03-08T23:00:15.810Z,162.68
2023-03-08T23:01:26.012Z,157.15
2023-03-08T23:02:35.357Z,154.20
2023-03-08T23:03:43.513Z,168.77
2023-03-08T23:04:50.738Z,155.93
2023-03-08T23:05:57.919Z,160.30
2023-03-08T23:07:09.285Z,169.82
2023-03-08T23:08:16.602Z,165.32
2023-03-08T23:09:25.754Z,154.60
2023-03-08T23:10:33.432Z,154.65
2023-03-08T23:11:40.978Z,145.80
2023-03-08T23:12:48.163Z,136.20
2023-03-08T23:14:03.182Z,137.48
2023-03-08T23:15:21.176Z,143.70
2023-03-08T23:16:26.801Z,139.67
2023-03-08T23:17:33.713Z,134.63
2023-03-08T23:18:39.174Z,129.30
2023-03-08T23:19:46.588Z,129.00
2023-03-08T23:20:52.008Z,130.32
2023-03-08T23:21:59.233Z,135.25
2023-03-08T23:23:04.551Z,138.48
2023-03-08T23:24:11.701Z,142.32
2023-03-08T23:25:17.090Z,134.93
2023-03-08T23:26:28.059Z,129.23
2023-03-08T23:27:34.368Z,135.23
2023-03-08T23:28:41.560Z,135.55
2023-03-08T23:29:51.605Z,140.30
2023-03-08T23:31:00.593Z,152.13
2023-03-08T23:32:10.126Z,151.88
2023-03-08T23:33:15.665Z,140.77
2023-03-08T23:34:23.611Z,138.82
2023-03-08T23:35:30.924Z,140.70
2023-03-08T23:36:39.457Z,135.38
2023-03-08T23:37:49.646Z,146.80
2023-03-08T23:38:58.137Z,143.47
2023-03-08T23:40:06.030Z,138.27
2023-03-08T23:41:13.023Z,146.52
2023-03-08T23:42:26.353Z,140.93
2023-03-08T23:43:35.454Z,140.25
2023-03-08T23:44:42.679Z,146.45
2023-03-08T23:45:52.154Z,155.60
2023-03-08T23:46:57.775Z,156.65
2023-03-08T23:48:05.759Z,143.00
2023-03-08T23:49:12.341Z,150.05
2023-03-08T23:50:19.162Z,143.57
2023-03-08T23:51:25.135Z,147.25
2023-03-08T23:52:31.937Z,148.07
2023-03-08T23:53:39.681Z,145.13
2023-03-08T23:54:52.195Z,144.63
2023-03-08T23:55:58.647Z,152.90
2023-03-08T23:57:10.726Z,142.68
2023-03-08T23:58:17.405Z,152.35
2023-03-08T23:59:28.621Z,145.77
